ADDS METAR Data INFO
IDs: Format: Raw Decoded Include TAF

Data at: 2040 UTC 19 Jul 2018

KBHC 192035Z AUTO 14004KT 10SM SCT110 29/25 A2987 RMK AO2 LTG DSNT S THRU W
KBHC 192015Z AUTO 00000KT 10SM SCT090 BKN110 30/25 A2988 RMK AO2 LTG DSNT ALQS
KBHC 191955Z AUTO 00000KT 10SM VCTS BKN080 29/25 A2989 RMK AO2 LTG DSNT N SE AND W
KBHC 191935Z AUTO 00000KT 10SM SCT035 SCT048 SCT070 29/26 A2990 RMK AO2 LTG DSNT SE THRU W
KBHC 191915Z AUTO 04005KT 10SM VCTSRA SCT048 SCT070 BKN080 28/26 A2989 RMK AO2 LTG DSNT SE THRU SW
KBHC 191855Z AUTO 04005KT 10SM SCT110 30/24 A2990 RMK AO2 LTG DSNT SE AND S
KBHC 191835Z AUTO 02004KT 10SM SCT042 BKN050 BKN060 30/23 A2991 RMK AO2 LTG DSNT SE THRU SW
KBHC 191815Z AUTO 01004KT 10SM VCTS BKN040 OVC050 30/24 A2991 RMK AO2 LTG DSNT SE THRU SW
KBHC 191755Z AUTO 00000KT 10SM SCT037 SCT046 SCT070 31/22 A2992 RMK AO2 LTG DSNT SE AND SW
KBHC 191735Z AUTO 10004KT 10SM SCT036 31/22 A2993 RMK AO2 LTG DSNT SE AND W
KBHC 191715Z AUTO 00000KT 10SM SCT034 31/22 A2994 RMK AO2 LTG DSNT SE THRU W
KBHC 191655Z AUTO 05003KT 10SM BKN030 31/23 A2995 RMK AO2 LTG DSNT SE AND S
KBHC 191635Z AUTO 00000KT 10SM BKN028 BKN034 29/24 A2995 RMK AO2 LTG DSNT SE
KBHC 191615Z AUTO 00000KT 10SM BKN023 BKN028 BKN034 29/25 A2995 RMK AO2 LTG DSNT SE
KBHC 191555Z AUTO 10003KT 10SM BKN023 BKN028 28/25 A2995 RMK AO2 LTG DSNT SE AND S
KBHC 191535Z AUTO 05003KT 10SM SCT015 SCT029 SCT034 29/26 A2996 RMK AO2 LTG DSNT SE
KBHC 191515Z AUTO 00000KT 10SM BKN013 SCT021 BKN033 28/26 A2996 RMK AO2 LTG DSNT SE
KBHC 191455Z AUTO 00000KT 10SM OVC011 27/27 A2996 RMK AO2
KBHC 191435Z AUTO 01003KT 10SM OVC009 26/26 A2996 RMK AO2 LTG DSNT E
KBHC 191415Z AUTO 00000KT 10SM OVC007 26/26 A2997 RMK AO2
KBHC 191355Z AUTO 00000KT 10SM OVC007 25/25 A2997 RMK AO2 LTG DSNT SE
KBHC 191335Z AUTO 00000KT 10SM OVC007 25/25 A2997 RMK AO2
KBHC 191315Z AUTO 00000KT 10SM OVC005 25/25 A2997 RMK AO2
KBHC 191255Z AUTO 00000KT 10SM OVC005 25/24 A2996 RMK AO2 LTG DSNT E
KBHC 191235Z AUTO 00000KT 10SM OVC005 24/24 A2996 RMK AO2
KBHC 191215Z AUTO 00000KT 10SM OVC005 24/24 A2995 RMK AO2 LTG DSNT E AND SW
KBHC 191155Z AUTO 00000KT 7SM OVC005 23/23 A2995 RMK AO2 LTG DSNT E AND SE
KBHC 191135Z AUTO 20003KT 7SM OVC005 23/23 A2995 RMK AO2 LTG DSNT E
KBHC 191115Z AUTO 00000KT 7SM OVC005 23/23 A2995 RMK AO2
KBHC 191055Z AUTO 00000KT 7SM SCT005 BKN046 OVC060 23/23 A2994 RMK AO2
KBHC 191035Z AUTO 00000KT 10SM SCT005 OVC044 23/23 A2994 RMK AO2
KBHC 191015Z AUTO 00000KT 10SM BKN044 BKN055 23/23 A2993 RMK AO2
KBHC 190955Z AUTO 00000KT 10SM SCT044 OVC055 23/23 A2992 RMK AO2
KBHC 190935Z AUTO 00000KT 10SM BKN055 23/23 A2991 RMK AO2
KBHC 190915Z AUTO 00000KT 10SM SCT055 23/23 A2991 RMK AO2
KBHC 190855Z AUTO 00000KT 10SM CLR 23/23 A2991 RMK AO2
KBHC 190835Z AUTO 00000KT 10SM CLR 23/23 A2990 RMK AO2
KBHC 190815Z AUTO 00000KT 10SM CLR 23/23 A2991 RMK AO2
KBHC 190755Z AUTO 00000KT 10SM CLR 23/23 A2991 RMK AO2
KBHC 190735Z AUTO 00000KT 10SM CLR 23/23 A2991 RMK AO2
KBHC 190715Z AUTO 21003KT 10SM CLR 23/23 A2991 RMK AO2
KBHC 190655Z AUTO 00000KT 10SM CLR 23/23 A2991 RMK AO2
KBHC 190635Z AUTO 00000KT 10SM CLR 23/23 A2991 RMK AO2
KBHC 190615Z AUTO 00000KT 10SM SCT033 23/23 A2992 RMK AO2
KBHC 190555Z AUTO 00000KT 10SM SCT033 23/23 A2993 RMK AO2
KBHC 190535Z AUTO 00000KT 10SM BKN033 24/24 A2994 RMK AO2
KBHC 190515Z AUTO 00000KT 10SM BKN031 24/24 A2994 RMK AO2 LTG DSNT E
KBHC 190455Z AUTO 00000KT 10SM BKN031 BKN050 24/24 A2994 RMK AO2
KBHC 190435Z AUTO 00000KT 10SM BKN031 BKN040 OVC048 25/25 A2994 RMK AO2
KBHC 190415Z AUTO 00000KT 10SM BKN031 BKN039 25/25 A2994 RMK AO2
KBHC 190355Z AUTO 00000KT 10SM SCT031 25/25 A2994 RMK AO2
KBHC 190335Z AUTO 35003KT 10SM VCTS SCT095 SCT120 25/25 A2994 RMK AO2 LTG DSNT NW
KBHC 190315Z AUTO 00000KT 10SM -RA SCT075 SCT095 SCT120 25/25 A2993 RMK AO2
KBHC 190255Z AUTO 00000KT 10SM SCT075 SCT085 25/25 A2993 RMK AO2 LTG DSNT N
KBHC 190235Z AUTO 00000KT 10SM CLR 25/25 A2994 RMK AO2
KBHC 190215Z AUTO 00000KT 10SM CLR 25/25 A2994 RMK AO2 LTG DSNT NW
KBHC 190155Z AUTO 00000KT 10SM CLR 25/25 A2992 RMK AO2 LTG DSNT NW THRU E
KBHC 190135Z AUTO 00000KT 10SM VCTS CLR 25/25 A2991 RMK AO2 LTG DSNT NW THRU NE
KBHC 190115Z AUTO 00000KT 10SM CLR 25/25 A2991 RMK AO2 LTG DSNT NE AND E
KBHC 190055Z AUTO 18003KT 10SM VCTS CLR 25/25 A2993 RMK AO2 LTG DSNT N AND SW
KBHC 190035Z AUTO 00000KT 10SM CLR 25/25 A2991 RMK AO2 LTG DSNT SW THRU NW
KBHC 190015Z AUTO 21006KT 10SM VCTS SCT050 26/25 A2991 RMK AO2 LTG DSNT SW THRU N
KBHC 182355Z AUTO 20013G17KT 10SM SCT050 27/23 A2991 RMK AO2 LTG DSNT E THRU W
KBHC 182335Z AUTO 19012KT 10SM VCTS SCT050 30/25 A2989 RMK AO2 LTG DSNT ALQS
KBHC 182315Z AUTO 00000KT 10SM TS CLR 31/23 A2988 RMK AO2 LTG DSNT ALQS
KBHC 182255Z AUTO 00000KT 10SM VCTS CLR 31/23 A2989 RMK AO2 LTG DSNT E THRU SW
KBHC 182235Z AUTO 00000KT 10SM CLR 30/23 A2989 RMK AO2 LTG DSNT N
KBHC 182215Z AUTO 00000KT 10SM CLR 30/24 A2989 RMK AO2 LTG DSNT E
KBHC 182155Z AUTO 31003KT 10SM CLR 28/25 A2989 RMK AO2
KBHC 182135Z AUTO 32005KT 10SM CLR 29/25 A2989 RMK AO2 LTG DSNT E AND NW
KBHC 182115Z AUTO 00000KT 10SM CLR 30/24 A2989 RMK AO2 LTG DSNT N AND E
KBHC 182055Z AUTO 00000KT 10SM CLR 31/23 A2990 RMK AO2
KBHC 182035Z AUTO 00000KT 10SM CLR 31/23 A2990 RMK AO2 LTG DSNT N AND NW
KBHC 182015Z AUTO 26003KT 10SM CLR 31/23 A2991 RMK AO2 LTG DSNT NW
KBHC 181955Z AUTO 27004KT 10SM SCT043 31/23 A2991 RMK AO2 LTG DSNT N AND NW
KBHC 181935Z AUTO 26007KT 10SM SCT043 SCT075 32/22 A2991 RMK AO2 LTG DSNT NW
KBHC 181915Z AUTO 25006KT 10SM SCT040 32/23 A2992 RMK AO2 LTG DSNT NW
KBHC 181855Z AUTO 25007KT 10SM SCT040 SCT060 32/23 A2992 RMK AO2 LTG DSNT SE AND NW
KBHC 181835Z AUTO 25005KT 10SM SCT038 SCT060 32/23 A2993 RMK AO2
KBHC 181815Z AUTO 26005KT 10SM SCT036 SCT041 SCT050 32/23 A2994 RMK AO2
KBHC 181755Z AUTO 26004KT 10SM SCT034 SCT041 SCT065 31/23 A2995 RMK AO2
KBHC 181735Z AUTO 23005KT 10SM SCT034 SCT050 31/23 A2995 RMK AO2
KBHC 181715Z AUTO 27005KT 10SM SCT032 SCT038 SCT050 31/23 A2996 RMK AO2
KBHC 181655Z AUTO 25007KT 10SM SCT030 SCT038 31/24 A2996 RMK AO2
KBHC 181635Z AUTO 28004KT 10SM SCT028 30/25 A2997 RMK AO2
KBHC 181615Z AUTO 23006KT 10SM SCT028 30/24 A2998 RMK AO2
KBHC 181555Z AUTO 26005KT 10SM SCT026 30/25 A2999 RMK AO2
KBHC 181535Z AUTO 25007KT 10SM SCT024 30/25 A2999 RMK AO2 LTG DSNT SE
KBHC 181515Z AUTO 23006KT 10SM SCT024 30/25 A2999 RMK AO2
KBHC 181455Z AUTO 29004KT 10SM SCT020 SCT024 28/26 A2999 RMK AO2
KBHC 181435Z AUTO 27006KT 10SM SCT016 28/26 A2999 RMK AO2
KBHC 181415Z AUTO 26005KT 10SM BKN016 28/27 A2999 RMK AO2
KBHC 181355Z AUTO 27005KT 10SM SCT014 27/27 A2999 RMK AO2
KBHC 181335Z AUTO 26006KT 10SM SCT010 SCT014 27/26 A2999 RMK AO2
KBHC 181315Z AUTO 25004KT 10SM BKN008 26/26 A2999 RMK AO2
KBHC 181255Z AUTO 00000KT 10SM BKN006 25/25 A2999 RMK AO2
KBHC 181235Z AUTO 26004KT 10SM OVC006 25/25 A2999 RMK AO2
KBHC 181215Z AUTO 23003KT 10SM BKN004 24/24 A2999 RMK AO2 LTG DSNT W
KBHC 181155Z AUTO 00000KT 10SM BKN004 23/23 A2998 RMK AO2
KBHC 181135Z AUTO 00000KT 7SM SCT004 23/23 A2998 RMK AO2 LTG DSNT E
KBHC 181115Z AUTO 00000KT 7SM CLR 23/23 A2998 RMK AO2
KBHC 181055Z AUTO 00000KT 7SM CLR 23/23 A2997 RMK AO2
KBHC 181035Z AUTO 20003KT 7SM CLR 23/23 A2997 RMK AO2
KBHC 181015Z AUTO 00000KT 10SM CLR 23/23 A2996 RMK AO2
KBHC 180955Z AUTO 00000KT 10SM CLR 23/23 A2996 RMK AO2
KBHC 180935Z AUTO 21003KT 10SM CLR 23/23 A2995 RMK AO2
KBHC 180915Z AUTO 00000KT 10SM CLR 23/23 A2995 RMK AO2
KBHC 180855Z AUTO 00000KT 10SM CLR 23/23 A2995 RMK AO2